sensor_id;sensor_type;location;lat;lon;timestamp;noise_LAeq;noise_LA_min;noise_LA_max;noise_LA01;noise_LA95
61321;Laerm;17737;52.586;13.284;2022-09-06T00:02:08;42.13;39.62;49.62;;
61321;Laerm;17737;52.586;13.284;2022-09-06T00:04:36;49.70;39.71;63.84;;
61321;Laerm;17737;52.586;13.284;2022-09-06T00:07:04;45.29;39.89;62.19;;
61321;Laerm;17737;52.586;13.284;2022-09-06T00:09:33;41.48;39.80;44.17;;
61321;Laerm;17737;52.586;13.284;2022-09-06T00:12:02;41.31;39.33;43.19;;
61321;Laerm;17737;52.586;13.284;2022-09-06T00:14:29;41.35;39.79;45.05;;
61321;Laerm;17737;52.586;13.284;2022-09-06T00:16:57;47.14;39.71;60.34;;
61321;Laerm;17737;52.586;13.284;2022-09-06T00:19:25;49.88;40.06;64.69;;
61321;Laerm;17737;52.586;13.284;2022-09-06T00:21:53;41.44;39.80;43.58;;
61321;Laerm;17737;52.586;13.284;2022-09-06T00:24:21;43.98;40.06;57.15;;
61321;Laerm;17737;52.586;13.284;2022-09-06T00:26:50;42.22;39.89;52.60;;
61321;Laerm;17737;52.586;13.284;2022-09-06T00:29:17;42.15;39.53;51.62;;
61321;Laerm;17737;52.586;13.284;2022-09-06T00:31:45;53.00;40.38;66.81;;
61321;Laerm;17737;52.586;13.284;2022-09-06T00:34:13;58.18;40.38;75.44;;
61321;Laerm;17737;52.586;13.284;2022-09-06T00:36:41;42.72;39.53;53.20;;
61321;Laerm;17737;52.586;13.284;2022-09-06T00:39:08;42.01;39.62;49.21;;
61321;Laerm;17737;52.586;13.284;2022-09-06T00:41:36;41.72;39.53;54.35;;
61321;Laerm;17737;52.586;13.284;2022-09-06T00:44:05;47.59;39.89;61.26;;
61321;Laerm;17737;52.586;13.284;2022-09-06T00:46:34;48.85;40.53;60.39;;
61321;Laerm;17737;52.586;13.284;2022-09-06T00:49:05;46.64;39.98;56.78;;
61321;Laerm;17737;52.586;13.284;2022-09-06T00:51:34;42.09;39.80;47.08;;
61321;Laerm;17737;52.586;13.284;2022-09-06T00:54:04;43.38;39.98;49.74;;
61321;Laerm;17737;52.586;13.284;2022-09-06T00:56:34;53.39;40.30;67.63;;
61321;Laerm;17737;52.586;13.284;2022-09-06T00:59:06;42.36;39.98;45.62;;
61321;Laerm;17737;52.586;13.284;2022-09-06T01:01:34;42.13;40.14;45.82;;
61321;Laerm;17737;52.586;13.284;2022-09-06T01:04:02;50.11;39.89;64.29;;
61321;Laerm;17737;52.586;13.284;2022-09-06T01:06:37;41.96;39.71;46.24;;
61321;Laerm;17737;52.586;13.284;2022-09-06T01:09:26;41.49;39.71;45.15;;
61321;Laerm;17737;52.586;13.284;2022-09-06T01:12:07;42.30;39.62;50.47;;
61321;Laerm;17737;52.586;13.284;2022-09-06T01:14:56;41.96;39.89;47.36;;
61321;Laerm;17737;52.586;13.284;2022-09-06T01:17:36;48.33;39.80;62.27;;
61321;Laerm;17737;52.586;13.284;2022-09-06T01:20:37;49.22;40.06;64.29;;
61321;Laerm;17737;52.586;13.284;2022-09-06T01:23:25;45.85;39.80;60.00;;
61321;Laerm;17737;52.586;13.284;2022-09-06T01:26:04;54.35;40.30;69.01;;
61321;Laerm;17737;52.586;13.284;2022-09-06T01:28:43;45.61;40.46;57.18;;
61321;Laerm;17737;52.586;13.284;2022-09-06T01:31:18;41.89;39.80;46.98;;
61321;Laerm;17737;52.586;13.284;2022-09-06T01:34:06;42.34;39.80;48.52;;
61321;Laerm;17737;52.586;13.284;2022-09-06T01:36:42;43.52;39.98;52.21;;
61321;Laerm;17737;52.586;13.284;2022-09-06T01:39:32;50.60;40.30;65.88;;
61321;Laerm;17737;52.586;13.284;2022-09-06T01:42:04;50.81;40.06;66.11;;
61321;Laerm;17737;52.586;13.284;2022-09-06T01:44:36;53.25;40.06;67.36;;
61321;Laerm;17737;52.586;13.284;2022-09-06T01:47:16;48.90;39.89;62.27;;
61321;Laerm;17737;52.586;13.284;2022-09-06T01:49:59;50.90;39.98;65.24;;
61321;Laerm;17737;52.586;13.284;2022-09-06T01:52:33;42.44;39.98;48.44;;
61321;Laerm;17737;52.586;13.284;2022-09-06T01:55:15;49.23;39.80;62.68;;
61321;Laerm;17737;52.586;13.284;2022-09-06T01:57:56;42.00;40.06;44.86;;
61321;Laerm;17737;52.586;13.284;2022-09-06T02:00:32;41.60;39.89;44.73;;
61321;Laerm;17737;52.586;13.284;2022-09-06T02:03:08;41.63;39.80;45.05;;
61321;Laerm;17737;52.586;13.284;2022-09-06T02:05:42;41.81;39.80;47.88;;
61321;Laerm;17737;52.586;13.284;2022-09-06T02:08:15;51.99;40.06;66.84;;
61321;Laerm;17737;52.586;13.284;2022-09-06T02:10:49;47.99;40.06;62.70;;
61321;Laerm;17737;52.586;13.284;2022-09-06T02:13:20;42.12;40.06;48.88;;
61321;Laerm;17737;52.586;13.284;2022-09-06T02:15:55;42.44;40.38;47.40;;
61321;Laerm;17737;52.586;13.284;2022-09-06T02:18:29;50.65;40.06;63.33;;
61321;Laerm;17737;52.586;13.284;2022-09-06T02:21:00;51.13;40.30;63.30;;
61321;Laerm;17737;52.586;13.284;2022-09-06T02:23:32;45.53;39.80;57.43;;
61321;Laerm;17737;52.586;13.284;2022-09-06T02:26:04;47.36;40.22;61.44;;
61321;Laerm;17737;52.586;13.284;2022-09-06T02:28:33;43.42;40.53;53.92;;
61321;Laerm;17737;52.586;13.284;2022-09-06T02:31:06;49.65;40.96;63.36;;
61321;Laerm;17737;52.586;13.284;2022-09-06T02:33:38;49.75;40.82;63.06;;
61321;Laerm;17737;52.586;13.284;2022-09-06T02:36:08;56.15;41.16;69.04;;
61321;Laerm;17737;52.586;13.284;2022-09-06T02:38:38;47.80;40.75;56.54;;
61321;Laerm;17737;52.586;13.284;2022-09-06T02:41:07;55.28;40.61;69.92;;
61321;Laerm;17737;52.586;13.284;2022-09-06T02:43:35;49.72;40.68;64.38;;
61321;Laerm;17737;52.586;13.284;2022-09-06T02:46:04;47.46;40.30;62.23;;
61321;Laerm;17737;52.586;13.284;2022-09-06T02:48:32;45.54;40.30;61.16;;
61321;Laerm;17737;52.586;13.284;2022-09-06T02:51:01;51.30;40.22;65.31;;
61321;Laerm;17737;52.586;13.284;2022-09-06T02:53:29;53.64;40.30;69.93;;
61321;Laerm;17737;52.586;13.284;2022-09-06T02:55:57;54.55;41.59;69.71;;
61321;Laerm;17737;52.586;13.284;2022-09-06T02:58:25;56.07;40.96;72.17;;
61321;Laerm;17737;52.586;13.284;2022-09-06T03:00:53;54.99;41.22;68.46;;
61321;Laerm;17737;52.586;13.284;2022-09-06T03:03:22;45.10;40.82;57.34;;
61321;Laerm;17737;52.586;13.284;2022-09-06T03:05:51;53.28;40.53;65.73;;
61321;Laerm;17737;52.586;13.284;2022-09-06T03:08:21;54.26;42.90;65.57;;
61321;Laerm;17737;52.586;13.284;2022-09-06T03:10:52;55.43;42.14;68.41;;
61321;Laerm;17737;52.586;13.284;2022-09-06T03:13:22;53.87;41.76;65.64;;
61321;Laerm;17737;52.586;13.284;2022-09-06T03:15:51;55.10;41.98;66.76;;
61321;Laerm;17737;52.586;13.284;2022-09-06T03:18:19;53.24;42.49;64.07;;
61321;Laerm;17737;52.586;13.284;2022-09-06T03:20:49;56.34;43.03;69.78;;
61321;Laerm;17737;52.586;13.284;2022-09-06T03:23:18;54.43;42.00;66.07;;
61321;Laerm;17737;52.586;13.284;2022-09-06T03:25:46;54.32;41.71;65.90;;
61321;Laerm;17737;52.586;13.284;2022-09-06T03:28:14;59.16;42.34;69.40;;
61321;Laerm;17737;52.586;13.284;2022-09-06T03:30:44;54.32;43.94;63.81;;
61321;Laerm;17737;52.586;13.284;2022-09-06T03:33:13;56.98;43.19;70.05;;
61321;Laerm;17737;52.586;13.284;2022-09-06T03:35:49;57.62;45.84;66.92;;
61321;Laerm;17737;52.586;13.284;2022-09-06T03:38:17;54.71;42.24;75.15;;
61321;Laerm;17737;52.586;13.284;2022-09-06T03:40:46;57.56;43.07;70.02;;
61321;Laerm;17737;52.586;13.284;2022-09-06T03:43:15;57.86;41.98;70.44;;
61321;Laerm;17737;52.586;13.284;2022-09-06T03:45:44;58.05;41.93;69.01;;
61321;Laerm;17737;52.586;13.284;2022-09-06T03:48:13;59.27;46.10;70.15;;
61321;Laerm;17737;52.586;13.284;2022-09-06T03:50:43;57.04;42.94;69.12;;
61321;Laerm;17737;52.586;13.284;2022-09-06T03:53:14;55.49;41.71;68.23;;
61321;Laerm;17737;52.586;13.284;2022-09-06T03:55:43;55.44;42.49;64.42;;
61321;Laerm;17737;52.586;13.284;2022-09-06T03:58:11;57.84;41.93;69.74;;
61321;Laerm;17737;52.586;13.284;2022-09-06T04:00:39;60.80;41.82;77.43;;
61321;Laerm;17737;52.586;13.284;2022-09-06T04:03:07;59.39;42.77;69.36;;
61321;Laerm;17737;52.586;13.284;2022-09-06T04:05:35;56.66;42.63;68.63;;
61321;Laerm;17737;52.586;13.284;2022-09-06T04:08:03;60.69;42.54;75.57;;
61321;Laerm;17737;52.586;13.284;2022-09-06T04:10:32;57.25;42.77;66.87;;
61321;Laerm;17737;52.586;13.284;2022-09-06T04:13:00;59.45;44.75;67.33;;
61321;Laerm;17737;52.586;13.284;2022-09-06T04:15:28;59.43;42.86;70.82;;
61321;Laerm;17737;52.586;13.284;2022-09-06T04:17:55;55.37;42.94;66.27;;
61321;Laerm;17737;52.586;13.284;2022-09-06T04:20:23;59.55;43.62;70.07;;
61321;Laerm;17737;52.586;13.284;2022-09-06T04:22:51;63.24;43.31;79.32;;
61321;Laerm;17737;52.586;13.284;2022-09-06T04:25:18;56.01;41.82;69.83;;
61321;Laerm;17737;52.586;13.284;2022-09-06T04:27:47;60.61;43.54;68.46;;
61321;Laerm;17737;52.586;13.284;2022-09-06T04:30:15;55.34;42.68;65.83;;
61321;Laerm;17737;52.586;13.284;2022-09-06T04:32:43;61.34;44.27;70.57;;
61321;Laerm;17737;52.586;13.284;2022-09-06T04:35:11;58.80;42.93;72.68;;
61321;Laerm;17737;52.586;13.284;2022-09-06T04:37:39;59.16;42.90;68.42;;
61321;Laerm;17737;52.586;13.284;2022-09-06T04:40:08;52.10;42.58;63.56;;
61321;Laerm;17737;52.586;13.284;2022-09-06T04:42:36;50.57;41.98;65.20;;
61321;Laerm;17737;52.586;13.284;2022-09-06T04:45:06;60.37;43.65;69.34;;
61321;Laerm;17737;52.586;13.284;2022-09-06T04:47:34;59.23;43.65;69.16;;
61321;Laerm;17737;52.586;13.284;2022-09-06T04:50:02;57.32;43.97;67.06;;
61321;Laerm;17737;52.586;13.284;2022-09-06T04:52:30;57.66;44.39;66.49;;
61321;Laerm;17737;52.586;13.284;2022-09-06T04:54:57;57.05;43.03;69.44;;
61321;Laerm;17737;52.586;13.284;2022-09-06T04:57:25;59.54;42.19;68.75;;
61321;Laerm;17737;52.586;13.284;2022-09-06T04:59:53;58.45;43.47;69.04;;
61321;Laerm;17737;52.586;13.284;2022-09-06T05:02:22;59.66;43.35;68.92;;
61321;Laerm;17737;52.586;13.284;2022-09-06T05:04:50;59.92;45.66;70.83;;
61321;Laerm;17737;52.586;13.284;2022-09-06T05:07:19;61.44;44.80;67.71;;
61321;Laerm;17737;52.586;13.284;2022-09-06T05:09:46;60.32;43.54;72.19;;
61321;Laerm;17737;52.586;13.284;2022-09-06T05:12:14;62.57;46.34;73.50;;
61321;Laerm;17737;52.586;13.284;2022-09-06T05:14:42;61.16;45.48;73.76;;
61321;Laerm;17737;52.586;13.284;2022-09-06T05:17:09;61.17;49.05;68.99;;
61321;Laerm;17737;52.586;13.284;2022-09-06T05:19:41;60.54;48.63;68.32;;
61321;Laerm;17737;52.586;13.284;2022-09-06T05:22:09;65.29;53.66;73.40;;
61321;Laerm;17737;52.586;13.284;2022-09-06T05:24:37;67.67;51.77;74.47;;
61321;Laerm;17737;52.586;13.284;2022-09-06T05:27:05;66.94;51.85;74.22;;
61321;Laerm;17737;52.586;13.284;2022-09-06T05:29:33;62.14;49.98;71.08;;
61321;Laerm;17737;52.586;13.284;2022-09-06T05:32:01;61.67;48.16;72.03;;
61321;Laerm;17737;52.586;13.284;2022-09-06T05:34:28;67.07;52.96;74.69;;
61321;Laerm;17737;52.586;13.284;2022-09-06T05:36:57;62.10;51.95;68.76;;
61321;Laerm;17737;52.586;13.284;2022-09-06T05:39:25;62.62;52.32;79.30;;
61321;Laerm;17737;52.586;13.284;2022-09-06T05:41:53;60.83;51.05;70.28;;
61321;Laerm;17737;52.586;13.284;2022-09-06T05:44:21;68.08;53.84;79.68;;
61321;Laerm;17737;52.586;13.284;2022-09-06T05:46:48;62.64;52.96;70.20;;
61321;Laerm;17737;52.586;13.284;2022-09-06T05:49:16;65.85;56.38;74.31;;
61321;Laerm;17737;52.586;13.284;2022-09-06T05:51:49;67.68;56.80;74.80;;
61321;Laerm;17737;52.586;13.284;2022-09-06T05:54:18;66.19;51.84;74.84;;
61321;Laerm;17737;52.586;13.284;2022-09-06T05:56:46;66.12;48.07;74.34;;
61321;Laerm;17737;52.586;13.284;2022-09-06T05:59:14;61.13;50.44;67.98;;
61321;Laerm;17737;52.586;13.284;2022-09-06T06:01:46;60.51;45.40;68.91;;
61321;Laerm;17737;52.586;13.284;2022-09-06T06:04:15;62.15;48.56;78.32;;
61321;Laerm;17737;52.586;13.284;2022-09-06T06:06:44;58.77;43.76;67.90;;
61321;Laerm;17737;52.586;13.284;2022-09-06T06:09:12;62.61;50.79;69.43;;
61321;Laerm;17737;52.586;13.284;2022-09-06T06:11:41;60.14;46.22;68.65;;
61321;Laerm;17737;52.586;13.284;2022-09-06T06:14:09;60.06;46.14;69.01;;
61321;Laerm;17737;52.586;13.284;2022-09-06T06:16:37;59.44;45.50;67.44;;
61321;Laerm;17737;52.586;13.284;2022-09-06T06:19:05;62.54;49.18;70.50;;
61321;Laerm;17737;52.586;13.284;2022-09-06T06:21:33;62.02;48.91;69.37;;
61321;Laerm;17737;52.586;13.284;2022-09-06T06:24:03;60.44;44.75;70.88;;
61321;Laerm;17737;52.586;13.284;2022-09-06T06:26:33;62.70;47.23;71.48;;
61321;Laerm;17737;52.586;13.284;2022-09-06T06:29:03;62.01;47.36;75.16;;
61321;Laerm;17737;52.586;13.284;2022-09-06T06:31:33;62.97;49.23;72.07;;
61321;Laerm;17737;52.586;13.284;2022-09-06T06:34:02;64.45;50.81;86.33;;
61321;Laerm;17737;52.586;13.284;2022-09-06T06:36:31;61.79;50.82;71.22;;
61321;Laerm;17737;52.586;13.284;2022-09-06T06:39:01;61.37;46.46;72.66;;
61321;Laerm;17737;52.586;13.284;2022-09-06T06:41:31;62.43;47.96;70.42;;
61321;Laerm;17737;52.586;13.284;2022-09-06T06:44:01;57.88;46.14;66.84;;
61321;Laerm;17737;52.586;13.284;2022-09-06T06:46:32;61.11;48.71;69.41;;
61321;Laerm;17737;52.586;13.284;2022-09-06T06:49:03;60.55;47.54;67.96;;
61321;Laerm;17737;52.586;13.284;2022-09-06T06:51:33;58.35;44.83;67.46;;
61321;Laerm;17737;52.586;13.284;2022-09-06T06:54:03;60.46;48.79;69.43;;
61321;Laerm;17737;52.586;13.284;2022-09-06T06:56:33;60.88;45.01;67.92;;
61321;Laerm;17737;52.586;13.284;2022-09-06T06:59:02;58.58;46.04;65.84;;
61321;Laerm;17737;52.586;13.284;2022-09-06T07:01:33;60.47;43.62;74.43;;
61321;Laerm;17737;52.586;13.284;2022-09-06T07:04:02;60.89;45.23;73.59;;
61321;Laerm;17737;52.586;13.284;2022-09-06T07:06:29;60.00;43.80;73.66;;
61321;Laerm;17737;52.586;13.284;2022-09-06T07:09:18;58.73;45.71;69.97;;
61321;Laerm;17737;52.586;13.284;2022-09-06T07:11:47;59.16;47.42;68.04;;
61321;Laerm;17737;52.586;13.284;2022-09-06T07:14:15;60.31;45.07;71.21;;
61321;Laerm;17737;52.586;13.284;2022-09-06T07:16:45;57.70;44.04;68.29;;
61321;Laerm;17737;52.586;13.284;2022-09-06T07:19:13;59.58;43.87;73.02;;
61321;Laerm;17737;52.586;13.284;2022-09-06T07:22:01;59.37;45.71;68.27;;
61321;Laerm;17737;52.586;13.284;2022-09-06T07:24:31;58.37;44.69;69.30;;
61321;Laerm;17737;52.586;13.284;2022-09-06T07:26:59;60.28;44.48;70.04;;
61321;Laerm;17737;52.586;13.284;2022-09-06T07:29:46;58.00;43.23;71.93;;
61321;Laerm;17737;52.586;13.284;2022-09-06T07:32:15;60.29;44.01;74.35;;
61321;Laerm;17737;52.586;13.284;2022-09-06T07:34:43;61.23;47.52;71.72;;
61321;Laerm;17737;52.586;13.284;2022-09-06T07:37:11;60.21;44.66;71.63;;
61321;Laerm;17737;52.586;13.284;2022-09-06T07:39:38;59.66;46.36;71.71;;
61321;Laerm;17737;52.586;13.284;2022-09-06T07:42:07;57.94;46.18;71.88;;
61321;Laerm;17737;52.586;13.284;2022-09-06T07:44:35;60.54;45.48;70.75;;
61321;Laerm;17737;52.586;13.284;2022-09-06T07:47:03;58.51;44.72;73.08;;
61321;Laerm;17737;52.586;13.284;2022-09-06T07:49:53;59.93;43.90;71.50;;
61321;Laerm;17737;52.586;13.284;2022-09-06T07:52:41;60.53;48.27;70.63;;
61321;Laerm;17737;52.586;13.284;2022-09-06T07:55:28;60.25;45.15;73.59;;
61321;Laerm;17737;52.586;13.284;2022-09-06T07:57:56;56.08;45.25;66.22;;
61321;Laerm;17737;52.586;13.284;2022-09-06T08:00:24;60.24;46.14;70.71;;
61321;Laerm;17737;52.586;13.284;2022-09-06T08:02:51;60.75;46.46;71.38;;
61321;Laerm;17737;52.586;13.284;2022-09-06T08:05:20;61.52;46.61;74.90;;
61321;Laerm;17737;52.586;13.284;2022-09-06T08:08:08;63.04;45.02;77.82;;
61321;Laerm;17737;52.586;13.284;2022-09-06T08:10:56;61.99;43.80;77.96;;
61321;Laerm;17737;52.586;13.284;2022-09-06T08:13:23;60.20;48.08;67.99;;
61321;Laerm;17737;52.586;13.284;2022-09-06T08:15:57;59.31;46.18;66.89;;
61321;Laerm;17737;52.586;13.284;2022-09-06T08:18:24;58.42;45.25;70.06;;
61321;Laerm;17737;52.586;13.284;2022-09-06T08:20:54;59.18;44.63;68.99;;
61321;Laerm;17737;52.586;13.284;2022-09-06T08:23:21;60.65;44.77;72.49;;
61321;Laerm;17737;52.586;13.284;2022-09-06T08:25:56;56.14;45.38;65.10;;
61321;Laerm;17737;52.586;13.284;2022-09-06T08:28:25;58.87;43.43;68.42;;
61321;Laerm;17737;52.586;13.284;2022-09-06T08:30:54;58.74;45.28;68.56;;
61321;Laerm;17737;52.586;13.284;2022-09-06T08:33:22;55.03;43.15;69.21;;
61321;Laerm;17737;52.586;13.284;2022-09-06T08:35:56;60.62;44.33;71.64;;
61321;Laerm;17737;52.586;13.284;2022-09-06T08:38:24;61.79;43.65;73.73;;
61321;Laerm;17737;52.586;13.284;2022-09-06T08:40:53;59.93;44.27;71.13;;
61321;Laerm;17737;52.586;13.284;2022-09-06T08:43:21;58.25;44.60;67.06;;
61321;Laerm;17737;52.586;13.284;2022-09-06T08:45:54;60.06;44.97;68.87;;
61321;Laerm;17737;52.586;13.284;2022-09-06T08:48:23;60.22;45.10;71.17;;
61321;Laerm;17737;52.586;13.284;2022-09-06T08:51:03;59.47;45.33;69.55;;
61321;Laerm;17737;52.586;13.284;2022-09-06T08:53:38;59.40;44.91;70.83;;
61321;Laerm;17737;52.586;13.284;2022-09-06T08:56:12;59.07;43.19;73.71;;
61321;Laerm;17737;52.586;13.284;2022-09-06T08:58:56;59.31;44.36;67.28;;
61321;Laerm;17737;52.586;13.284;2022-09-06T09:01:32;58.12;46.79;68.85;;
61321;Laerm;17737;52.586;13.284;2022-09-06T09:04:04;57.65;44.51;69.72;;
61321;Laerm;17737;52.586;13.284;2022-09-06T09:06:39;59.72;45.13;69.34;;
61321;Laerm;17737;52.586;13.284;2022-09-06T09:09:12;57.99;46.83;67.17;;
61321;Laerm;17737;52.586;13.284;2022-09-06T09:11:42;57.88;43.73;68.02;;
61321;Laerm;17737;52.586;13.284;2022-09-06T09:14:15;59.34;46.96;67.08;;
61321;Laerm;17737;52.586;13.284;2022-09-06T09:16:43;60.03;45.80;68.47;;
61321;Laerm;17737;52.586;13.284;2022-09-06T09:19:12;58.81;45.40;67.17;;
61321;Laerm;17737;52.586;13.284;2022-09-06T09:21:41;58.60;45.59;67.39;;
61321;Laerm;17737;52.586;13.284;2022-09-06T09:24:10;55.99;43.87;69.60;;
61321;Laerm;17737;52.586;13.284;2022-09-06T09:26:48;59.87;46.68;66.84;;
61321;Laerm;17737;52.586;13.284;2022-09-06T09:29:17;57.98;46.46;67.26;;
61321;Laerm;17737;52.586;13.284;2022-09-06T09:31:54;58.78;44.20;75.33;;
61321;Laerm;17737;52.586;13.284;2022-09-06T09:34:30;57.25;44.66;66.58;;
61321;Laerm;17737;52.586;13.284;2022-09-06T09:37:16;56.61;44.20;65.27;;
61321;Laerm;17737;52.586;13.284;2022-09-06T09:40:12;62.65;44.07;78.91;;
61321;Laerm;17737;52.586;13.284;2022-09-06T09:42:40;59.18;44.04;71.65;;
61321;Laerm;17737;52.586;13.284;2022-09-06T09:45:22;57.68;45.93;69.64;;
61321;Laerm;17737;52.586;13.284;2022-09-06T09:47:51;58.29;46.34;67.40;;
61321;Laerm;17737;52.586;13.284;2022-09-06T09:50:24;58.38;46.16;85.90;;
61321;Laerm;17737;52.586;13.284;2022-09-06T09:52:55;55.09;45.18;63.80;;
61321;Laerm;17737;52.586;13.284;2022-09-06T09:55:33;58.79;47.54;66.48;;
61321;Laerm;17737;52.586;13.284;2022-09-06T09:58:01;59.56;45.18;69.67;;
61321;Laerm;17737;52.586;13.284;2022-09-06T10:00:33;59.89;45.62;68.66;;
61321;Laerm;17737;52.586;13.284;2022-09-06T10:03:11;56.84;44.86;66.54;;
61321;Laerm;17737;52.586;13.284;2022-09-06T10:05:39;57.64;44.04;65.90;;
61321;Laerm;17737;52.586;13.284;2022-09-06T10:08:11;59.48;45.52;69.84;;
61321;Laerm;17737;52.586;13.284;2022-09-06T10:10:40;57.61;44.57;67.26;;
61321;Laerm;17737;52.586;13.284;2022-09-06T10:13:17;57.81;44.66;66.66;;
61321;Laerm;17737;52.586;13.284;2022-09-06T10:15:47;57.38;44.86;67.95;;
61321;Laerm;17737;52.586;13.284;2022-09-06T10:18:27;58.33;47.60;69.75;;
61321;Laerm;17737;52.586;13.284;2022-09-06T10:20:58;58.63;47.07;72.37;;
61321;Laerm;17737;52.586;13.284;2022-09-06T10:23:46;58.26;48.72;65.48;;
61321;Laerm;17737;52.586;13.284;2022-09-06T10:26:42;58.52;44.30;67.84;;
61321;Laerm;17737;52.586;13.284;2022-09-06T10:29:20;58.64;43.90;69.62;;
61321;Laerm;17737;52.586;13.284;2022-09-06T10:32:03;59.55;45.30;68.40;;
61321;Laerm;17737;52.586;13.284;2022-09-06T10:34:57;59.04;44.77;69.44;;
61321;Laerm;17737;52.586;13.284;2022-09-06T10:37:43;60.08;48.59;71.09;;
61321;Laerm;17737;52.586;13.284;2022-09-06T10:40:23;60.72;43.65;71.82;;
61321;Laerm;17737;52.586;13.284;2022-09-06T10:42:54;58.59;45.02;70.03;;
61321;Laerm;17737;52.586;13.284;2022-09-06T10:45:35;59.24;43.47;70.50;;
61321;Laerm;17737;52.586;13.284;2022-09-06T10:48:08;59.32;44.36;71.81;;
61321;Laerm;17737;52.586;13.284;2022-09-06T10:50:48;60.18;46.70;71.18;;
61321;Laerm;17737;52.586;13.284;2022-09-06T10:53:29;59.19;45.13;68.55;;
61321;Laerm;17737;52.586;13.284;2022-09-06T10:56:05;58.14;43.87;67.01;;
61321;Laerm;17737;52.586;13.284;2022-09-06T10:58:40;61.82;45.13;75.33;;
61321;Laerm;17737;52.586;13.284;2022-09-06T11:01:34;56.98;44.48;70.24;;
61321;Laerm;17737;52.586;13.284;2022-09-06T11:04:07;60.44;48.06;69.06;;
61321;Laerm;17737;52.586;13.284;2022-09-06T11:06:43;58.10;48.27;75.14;;
61321;Laerm;17737;52.586;13.284;2022-09-06T11:09:16;58.16;47.23;66.53;;
61321;Laerm;17737;52.586;13.284;2022-09-06T11:11:50;58.85;46.88;68.62;;
61321;Laerm;17737;52.586;13.284;2022-09-06T11:14:26;59.85;44.17;72.72;;
61321;Laerm;17737;52.586;13.284;2022-09-06T11:16:58;59.10;45.69;67.10;;
61321;Laerm;17737;52.586;13.284;2022-09-06T11:19:37;56.97;45.02;66.42;;
61321;Laerm;17737;52.586;13.284;2022-09-06T11:22:20;60.83;45.38;68.11;;
61321;Laerm;17737;52.586;13.284;2022-09-06T11:25:10;55.39;43.66;65.32;;
61321;Laerm;17737;52.586;13.284;2022-09-06T11:27:49;58.23;44.11;76.13;;
61321;Laerm;17737;52.586;13.284;2022-09-06T11:30:24;57.95;44.01;68.57;;
61321;Laerm;17737;52.586;13.284;2022-09-06T11:33:06;59.29;44.07;68.68;;
61321;Laerm;17737;52.586;13.284;2022-09-06T11:35:36;57.91;42.24;71.77;;
61321;Laerm;17737;52.586;13.284;2022-09-06T11:38:17;58.32;44.77;68.11;;
61321;Laerm;17737;52.586;13.284;2022-09-06T11:40:55;57.63;43.65;67.12;;
61321;Laerm;17737;52.586;13.284;2022-09-06T11:43:46;59.07;44.04;66.86;;
61321;Laerm;17737;52.586;13.284;2022-09-06T11:49:33;59.64;43.73;72.94;;
61321;Laerm;17737;52.586;13.284;2022-09-06T11:55:11;57.97;43.15;68.04;;
61321;Laerm;17737;52.586;13.284;2022-09-06T11:57:42;59.26;44.17;68.43;;
61321;Laerm;17737;52.586;13.284;2022-09-06T12:00:20;57.36;43.39;67.11;;
61321;Laerm;17737;52.586;13.284;2022-09-06T12:02:49;58.82;45.57;69.98;;
61321;Laerm;17737;52.586;13.284;2022-09-06T12:05:22;58.43;45.18;69.87;;
61321;Laerm;17737;52.586;13.284;2022-09-06T12:11:04;58.78;45.38;67.46;;
61321;Laerm;17737;52.586;13.284;2022-09-06T12:13:50;57.69;46.44;68.40;;
61321;Laerm;17737;52.586;13.284;2022-09-06T12:16:22;59.40;47.77;67.83;;
61321;Laerm;17737;52.586;13.284;2022-09-06T12:18:58;60.15;45.02;72.07;;
61321;Laerm;17737;52.586;13.284;2022-09-06T12:21:47;55.57;44.17;68.02;;
61321;Laerm;17737;52.586;13.284;2022-09-06T12:24:52;60.40;46.04;71.06;;
61321;Laerm;17737;52.586;13.284;2022-09-06T12:27:20;60.21;44.60;74.07;;
61321;Laerm;17737;52.586;13.284;2022-09-06T12:29:50;59.83;45.25;71.81;;
61321;Laerm;17737;52.586;13.284;2022-09-06T12:32:24;62.01;45.59;71.53;;
61321;Laerm;17737;52.586;13.284;2022-09-06T12:35:01;61.85;46.76;71.34;;
61321;Laerm;17737;52.586;13.284;2022-09-06T12:37:52;60.27;46.02;76.34;;
61321;Laerm;17737;52.586;13.284;2022-09-06T12:40:23;59.24;47.25;70.16;;
61321;Laerm;17737;52.586;13.284;2022-09-06T12:42:52;58.09;45.33;66.63;;
61321;Laerm;17737;52.586;13.284;2022-09-06T12:45:21;57.72;44.91;68.28;;
61321;Laerm;17737;52.586;13.284;2022-09-06T12:48:05;60.65;43.97;73.63;;
61321;Laerm;17737;52.586;13.284;2022-09-06T12:50:34;59.45;46.48;68.59;;
61321;Laerm;17737;52.586;13.284;2022-09-06T12:53:16;59.58;45.33;67.57;;
61321;Laerm;17737;52.586;13.284;2022-09-06T12:56:01;62.10;48.58;71.06;;
61321;Laerm;17737;52.586;13.284;2022-09-06T12:58:33;60.20;49.67;68.62;;
61321;Laerm;17737;52.586;13.284;2022-09-06T13:01:08;60.55;45.64;74.92;;
61321;Laerm;17737;52.586;13.284;2022-09-06T13:03:42;61.22;46.20;75.23;;
61321;Laerm;17737;52.586;13.284;2022-09-06T13:06:18;59.82;49.99;68.94;;
61321;Laerm;17737;52.586;13.284;2022-09-06T13:08:53;60.18;47.48;85.07;;
61321;Laerm;17737;52.586;13.284;2022-09-06T13:11:25;60.02;47.40;76.76;;
61321;Laerm;17737;52.586;13.284;2022-09-06T13:13:54;58.77;44.48;79.60;;
61321;Laerm;17737;52.586;13.284;2022-09-06T13:16:24;60.60;44.17;71.86;;
61321;Laerm;17737;52.586;13.284;2022-09-06T13:19:08;58.92;45.66;72.94;;
61321;Laerm;17737;52.586;13.284;2022-09-06T13:21:44;60.64;45.50;68.17;;
61321;Laerm;17737;52.586;13.284;2022-09-06T13:24:20;60.42;46.34;70.24;;
61321;Laerm;17737;52.586;13.284;2022-09-06T13:26:50;60.80;51.58;66.81;;
61321;Laerm;17737;52.586;13.284;2022-09-06T13:29:22;61.09;48.67;71.06;;
61321;Laerm;17737;52.586;13.284;2022-09-06T13:31:51;59.37;47.07;69.16;;
61321;Laerm;17737;52.586;13.284;2022-09-06T13:34:22;58.88;47.90;69.00;;
61321;Laerm;17737;52.586;13.284;2022-09-06T13:36:52;59.34;43.94;66.96;;
61321;Laerm;17737;52.586;13.284;2022-09-06T13:39:31;59.31;43.31;72.01;;
61321;Laerm;17737;52.586;13.284;2022-09-06T13:42:02;61.45;44.33;72.42;;
61321;Laerm;17737;52.586;13.284;2022-09-06T13:44:32;58.71;43.73;68.52;;
61321;Laerm;17737;52.586;13.284;2022-09-06T13:47:01;60.62;43.90;67.97;;
61321;Laerm;17737;52.586;13.284;2022-09-06T13:49:31;59.94;47.48;68.93;;
61321;Laerm;17737;52.586;13.284;2022-09-06T13:52:02;64.10;49.37;80.26;;
61321;Laerm;17737;52.586;13.284;2022-09-06T13:54:32;61.31;48.78;71.48;;
61321;Laerm;17737;52.586;13.284;2022-09-06T13:57:00;59.29;47.28;67.89;;
61321;Laerm;17737;52.586;13.284;2022-09-06T13:59:28;59.40;44.77;69.49;;
61321;Laerm;17737;52.586;13.284;2022-09-06T14:01:59;60.02;43.94;66.47;;
61321;Laerm;17737;52.586;13.284;2022-09-06T14:04:28;59.77;47.45;69.84;;
61321;Laerm;17737;52.586;13.284;2022-09-06T14:06:59;60.10;42.94;67.68;;
61321;Laerm;17737;52.586;13.284;2022-09-06T14:09:27;58.89;43.15;68.84;;
61321;Laerm;17737;52.586;13.284;2022-09-06T14:11:57;59.55;47.03;67.22;;